Latest Weather Observations for Lihou Reef Lighthouse

IDQ60801

Issued at 4:02 pm EST Thursday 28 May 2015 (issued every 30 minutes, with the page automatically refreshed every 10 minutes)

About weather observations | Map of weather stations | Latest weather observations for QLD | Other Formats
Station Details ID: 200880 Name: LIHOU REEF LIGHTHOUSE Lat: -17.13 Lon: 152.15 Height: 0.0 m
Data from the previous 72 hours. | See also: Recent months for locations in Queensland
Date/Time
EST
Temp
°C
App
Temp
°C
Dew
Point
Rel
Hum
%
Delta-T
°C
Wind Press
QNH
hPa
Press
MSL
hPa
Rain
since 9 am
mm
Dir
 
Spd
km/h
Gust
km/h
Spd
kts
Gust
kts
28/04:00pm 26.1 - - - - ESE 33 39 18 21 1015.8 1015.7 -
28/03:30pm 25.9 - - - - ESE 32 39 17 21 1015.6 1015.5 -
28/03:00pm 26.2 - - - - ESE 32 37 17 20 1015.7 1015.6 -
28/02:30pm 26.4 - - - - ESE 28 33 15 18 1015.6 1015.5 -
28/02:00pm 26.3 - - - - ESE 30 37 16 20 1015.8 1015.7 -
28/01:30pm 26.0 - - - - ESE 30 35 16 19 1015.6 1015.5 -
28/01:00pm 26.0 - - - - ESE 30 37 16 20 1015.8 1015.7 -
28/12:30pm 26.2 - - - - ESE 28 33 15 18 1016.3 1016.2 -
28/12:00pm 26.2 - - - - ESE 33 37 18 20 1016.7 1016.6 -
28/11:30am 26.1 - - - - ESE 32 35 17 19 1017.2 1017.1 -
28/11:00am 26.2 - - - - ESE 32 35 17 19 1017.6 1017.5 -
28/10:30am 26.2 - - - - ESE 30 35 16 19 1017.9 1017.8 -
28/10:00am 26.1 - - - - ESE 30 33 16 18 1018.3 1018.2 -
28/09:30am 26.4 - - - - ESE 30 33 16 18 1018.4 1018.3 -
28/09:00am 26.2 - - - - ESE 26 32 14 17 1018.5 1018.4 -
28/08:30am 26.0 - - - - ESE 26 32 14 17 1018.4 1018.3 -
28/08:00am 26.1 - - - - ESE 28 33 15 18 1018.0 1017.9 -
28/07:30am 25.8 - - - - ESE 28 33 15 18 1017.8 1017.7 -
28/07:00am 24.9 - - - - ESE 24 32 13 17 1017.5 1017.4 -
28/06:30am 24.9 - - - - ESE 24 32 13 17 1017.3 1017.2 -
28/06:00am 25.4 - - - - ESE 24 28 13 15 1016.8 1016.7 -
28/05:30am 25.3 - - - - ESE 24 32 13 17 1016.3 1016.2 -
28/05:00am 25.3 - - - - E 24 28 13 15 1016.0 1015.9 -
28/04:30am 25.2 - - - - ESE 26 32 14 17 1015.8 1015.7 -
28/04:00am 25.3 - - - - ESE 26 30 14 16 1015.7 1015.6 -
28/03:30am 25.4 - - - - ESE 26 32 14 17 1015.6 1015.5 -
28/03:00am 25.3 - - - - ESE 26 32 14 17 1015.6 1015.5 -
28/02:30am 25.2 - - - - ESE 28 35 15 19 1015.7 1015.6 -
28/02:00am 25.5 - - - - ESE 28 32 15 17 1016.0 1015.9 -
28/01:30am 25.4 - - - - ESE 28 33 15 18 1016.4 1016.3 -
28/01:00am 25.5 - - - - ESE 30 35 16 19 1016.7 1016.6 -
28/12:30am 25.5 - - - - ESE 28 33 15 18 1017.1 1017.0 -
28/12:00am 25.4 - - - - ESE 28 32 15 17 1017.3 1017.2 -
 
Date/Time
EST
Temp
°C
App
Temp
°C
Dew
Point
Rel
Hum
%
Delta-T
°C
Wind Press
QNH
hPa
Press
MSL
hPa
Rain
since 9 am
mm
Dir
 
Spd
km/h
Gust
km/h
Spd
kts
Gust
kts
27/11:30pm 25.4 - - - - ESE 32 37 17 20 1017.1 1017.0 -
27/11:00pm 25.4 - - - - ESE 30 35 16 19 1017.2 1017.1 -
27/10:30pm 25.6 - - - - SE 32 35 17 19 1017.5 1017.4 -
27/10:00pm 25.5 - - - - SE 33 39 18 21 1017.4 1017.3 -
27/09:30pm 25.5 - - - - ESE 32 37 17 20 1017.4 1017.3 -
27/09:00pm 25.4 - - - - ESE 32 37 17 20 1017.5 1017.4 -
27/08:30pm 25.3 - - - - ESE 33 37 18 20 1017.4 1017.3 -
27/08:00pm 25.5 - - - - ESE 32 37 17 20 1017.3 1017.2 -
27/07:30pm 25.4 - - - - ESE 33 39 18 21 1017.0 1016.9 -
27/07:00pm 25.5 - - - - SE 33 39 18 21 1016.9 1016.8 -
27/06:30pm 25.5 - - - - ESE 30 35 16 19 1016.7 1016.6 -
27/06:00pm 25.4 - - - - ESE 30 35 16 19 1016.3 1016.2 -
27/05:30pm 25.4 - - - - SE 33 37 18 20 1016.0 1015.9 -
27/05:00pm 25.5 - - - - SE 33 39 18 21 1015.6 1015.5 -
27/04:30pm 25.5 - - - - SE 32 37 17 20 1015.5 1015.4 -
27/04:00pm 25.6 - - - - SE 33 37 18 20 1015.3 1015.2 -
27/03:30pm 25.8 - - - - SE 33 37 18 20 1015.4 1015.3 -
27/03:00pm 25.6 - - - - SE 32 37 17 20 1015.5 1015.4 -
27/02:30pm 25.9 - - - - SE 32 39 17 21 1015.4 1015.3 -
27/02:00pm 25.7 - - - - SE 33 41 18 22 1015.6 1015.5 -
27/01:30pm 26.0 - - - - SE 32 39 17 21 1015.7 1015.6 -
27/01:00pm 25.8 - - - - ESE 32 39 17 21 1016.1 1016.0 -
27/12:30pm 25.9 - - - - ESE 35 41 19 22 1016.4 1016.3 -
27/12:00pm 25.9 - - - - ESE 33 39 18 21 1016.9 1016.8 -
27/11:30am 25.6 - - - - ESE 35 41 19 22 1017.1 1017.0 -
27/11:00am 25.9 - - - - ESE 37 43 20 23 1017.2 1017.1 -
27/10:30am 25.9 - - - - SE 35 41 19 22 1017.7 1017.6 -
27/10:00am 25.9 - - - - ESE 32 37 17 20 1017.9 1017.8 -
27/09:30am 25.7 - - - - SE 33 37 18 20 1018.0 1017.9 -
27/09:00am 25.3 - - - - ESE 32 37 17 20 1018.1 1018.0 -
27/08:30am 25.8 - - - - ESE 33 37 18 20 1017.7 1017.6 -
27/08:00am 25.3 - - - - E 28 33 15 18 1017.5 1017.4 -
27/07:30am 24.8 - - - - ESE 35 43 19 23 1017.1 1017.0 -
27/07:00am 25.5 - - - - ESE 33 39 18 21 1016.8 1016.7 -
27/06:30am 25.4 - - - - ESE 33 39 18 21 1016.5 1016.4 -
27/06:00am 24.5 - - - - SE 33 39 18 21 1016.0 1015.9 -
27/05:30am 24.4 - - - - ESE 33 41 18 22 1015.7 1015.6 -
27/05:00am 25.3 - - - - ESE 30 37 16 20 1015.7 1015.6 -
27/04:30am 25.3 - - - - ESE 32 39 17 21 1015.8 1015.7 -
27/04:00am 25.0 - - - - ESE 33 39 18 21 1015.7 1015.6 -
27/03:30am 25.3 - - - - ESE 33 43 18 23 1015.9 1015.8 -
27/03:00am 25.1 - - - - ESE 35 39 19 21 1015.9 1015.8 -
27/02:30am 25.4 - - - - ESE 33 39 18 21 1016.1 1016.0 -
27/02:00am 25.4 - - - - SE 32 39 17 21 1016.4 1016.3 -
27/01:30am 25.3 - - - - ESE 33 39 18 21 1016.8 1016.7 -
27/01:00am 25.3 - - - - ESE 33 41 18 22 1017.1 1017.0 -
27/12:30am 25.5 - - - - SE 33 39 18 21 1017.3 1017.2 -
27/12:00am 25.2 - - - - ESE 33 39 18 21 1017.4 1017.3 -
 
Date/Time
EST
Temp
°C
App
Temp
°C
Dew
Point
Rel
Hum
%
Delta-T
°C
Wind Press
QNH
hPa
Press
MSL
hPa
Rain
since 9 am
mm
Dir
 
Spd
km/h
Gust
km/h
Spd
kts
Gust
kts
26/11:30pm 25.4 - - - - ESE 32 37 17 20 1017.7 1017.6 -
26/11:00pm 25.3 - - - - ESE 35 46 19 25 1017.7 1017.6 -
26/10:30pm 25.5 - - - - ESE 35 41 19 22 1018.0 1017.9 -
26/10:00pm 25.4 - - - - ESE 37 44 20 24 1018.3 1018.2 -
26/09:30pm 25.3 - - - - SE 37 43 20 23 1018.3 1018.2 -
26/09:00pm 25.3 - - - - ESE 37 44 20 24 1018.1 1018.0 -
26/08:30pm 25.5 - - - - SE 37 43 20 23 1017.9 1017.8 -
26/08:00pm 25.5 - - - - SE 39 46 21 25 1017.7 1017.6 -
26/07:30pm 25.2 - - - - SE 41 50 22 27 1017.7 1017.6 -
26/07:00pm 25.5 - - - - SE 41 48 22 26 1017.4 1017.3 -
26/06:30pm 25.7 - - - - SE 39 50 21 27 1017.0 1016.9 -
26/06:00pm 25.6 - - - - SE 37 44 20 24 1016.7 1016.6 -
26/05:30pm 25.2 - - - - SE 39 46 21 25 1016.6 1016.5 -
26/05:00pm 25.4 - - - - ESE 41 52 22 28 1016.3 1016.2 -
26/04:30pm 25.6 - - - - ESE 37 43 20 23 1016.4 1016.3 -
26/04:00pm 25.0 - - - - ESE 39 48 21 26 1016.1 1016.0 -
26/03:30pm 25.4 - - - - SE 33 41 18 22 1016.2 1016.1 -
26/03:00pm 24.9 - - - - SE 37 43 20 23 1016.3 1016.2 -
26/02:30pm 25.0 - - - - ESE 39 48 21 26 1016.4 1016.3 -
26/02:00pm 25.6 - - - - SE 33 43 18 23 1016.7 1016.6 -
26/01:30pm 25.5 - - - - SE 35 41 19 22 1017.0 1016.9 -
26/01:00pm 25.5 - - - - SE 33 43 18 23 1017.4 1017.3 -
26/12:30pm 25.7 - - - - SE 35 39 19 21 1018.0 1017.9 -
26/12:00pm 25.7 - - - - SE 35 41 19 22 1018.4 1018.3 -
26/11:30am 25.6 - - - - SE 35 43 19 23 1018.8 1018.7 -
26/11:00am 25.7 - - - - SE 35 43 19 23 1019.3 1019.2 -
26/10:30am 25.7 - - - - SE 35 41 19 22 1019.6 1019.5 -
26/10:00am 25.4 - - - - SE 37 44 20 24 1019.8 1019.7 -
26/09:30am 25.4 - - - - SE 39 46 21 25 1019.9 1019.8 -
26/09:00am 25.6 - - - - SE 37 44 20 24 1020.0 1019.9 -
26/08:30am 25.6 - - - - SE 37 43 20 23 1019.8 1019.7 -
26/08:00am 25.4 - - - - SE 41 48 22 26 1019.3 1019.2 -
26/07:30am 25.4 - - - - SE 43 50 23 27 1019.1 1019.0 -
26/07:00am 25.2 - - - - SE 41 48 22 26 1019.1 1019.0 -
26/06:30am 25.0 - - - - SE 43 48 23 26 1019.0 1018.9 -
26/06:00am 25.4 - - - - SE 41 52 22 28 1018.5 1018.4 -
26/05:30am 25.0 - - - - SE 37 43 20 23 1018.5 1018.4 -
26/05:00am 25.1 - - - - SE 39 46 21 25 1018.6 1018.5 -
26/04:30am 25.4 - - - - SE 39 46 21 25 1018.5 1018.4 -
26/04:00am 25.1 - - - - ESE 41 50 22 27 1018.4 1018.3 -
26/03:30am 25.1 - - - - ESE 41 48 22 26 1018.4 1018.3 -
26/03:00am 24.8 - - - - SE 39 48 21 26 1018.4 1018.3 -
26/02:41am 24.8 - - - - SE 43 52 23 28 1018.1 1018.0 -
26/02:30am 25.5 - - - - ESE 37 44 20 24 1018.4 1018.3 -
26/02:00am 25.6 - - - - ESE 35 43 19 23 1018.6 1018.5 -
26/01:30am 25.7 - - - - ESE 39 48 21 26 1018.9 1018.8 -
26/01:00am 25.5 - - - - ESE 39 44 21 24 1018.9 1018.8 -
26/12:30am 25.7 - - - - ESE 37 46 20 25 1018.9 1018.8 -
26/12:00am 25.7 - - - - ESE 41 46 22 25 1019.0 1018.9 -
 
Date/Time
EST
Temp
°C
App
Temp
°C
Dew
Point
Rel
Hum
%
Delta-T
°C
Wind Press
QNH
hPa
Press
MSL
hPa
Rain
since 9 am
mm
Dir
 
Spd
km/h
Gust
km/h
Spd
kts
Gust
kts
25/11:30pm 25.8 - - - - ESE 39 46 21 25 1019.3 1019.2 -
25/11:00pm 25.8 - - - - ESE 35 44 19 24 1019.6 1019.5 -
25/10:30pm 25.2 - - - - ESE 41 48 22 26 1019.8 1019.7 -
25/10:00pm 25.4 - - - - ESE 43 50 23 27 1019.8 1019.7 -
25/09:30pm 25.6 - - - - ESE 44 50 24 27 1019.8 1019.7 -
25/09:00pm 25.5 - - - - ESE 43 50 23 27 1020.0 1019.9 -
25/08:30pm 25.1 - - - - SE 44 54 24 29 1020.2 1020.1 -
25/08:00pm 25.4 - - - - SE 39 48 21 26 1019.8 1019.7 -
25/07:30pm 25.5 - - - - ESE 44 54 24 29 1019.6 1019.5 -
25/07:00pm 25.1 - - - - SE 39 46 21 25 1019.1 1019.0 -
25/06:30pm 25.5 - - - - SE 41 48 22 26 1018.7 1018.6 -
25/06:00pm 25.4 - - - - SE 43 46 23 25 1018.3 1018.2 -
25/05:30pm 25.3 - - - - ESE 43 48 23 26 1018.0 1017.9 -
25/05:00pm 25.5 - - - - ESE 43 50 23 27 1017.9 1017.8 -
25/04:30pm 25.5 - - - - ESE 41 48 22 26 1017.5 1017.4 -

Other Formats:

Comma delimited format used in spreadsheet applications
http://www.bom.gov.au/fwo/IDQ60801/IDQ60801.94293.axf

JavaScript Object Notation format (JSON) in row-major order
http://www.bom.gov.au/fwo/IDQ60801/IDQ60801.94293.json